Terminal Aerodrome Forecast
Issued by NWS Lake Charles, LA

Home | Current Version | Previous Version | Text Only | Print | Product List | Glossary On
Versions: 1 2 3 4 5 6 7 8 9 10 11 12 13 14 15 16
000
FTUS44 KLCH 202300
TAFAEX
TAF
KAEX 202328Z 2100/2124 17006KT P6SM VCTS FEW050CB SCT200
     FM210200 17003KT P6SM SCT250
     FM210800 17003KT 3SM BR SCT250
     FM211400 17008KT P6SM VCTS SCT040CB SCT200=

USA.gov is the U.S. government's official web portal to all federal, state and local government web resources and services.